sensor_id;sensor_type;location;lat;lon;timestamp;P1;durP1;ratioP1;P2;durP2;ratioP2
34200;SDS011;20469;55.638;37.670;2023-04-03T00:00:55;8.40;;;4.93;;
34200;SDS011;20469;55.638;37.670;2023-04-03T00:03:23;8.93;;;5.30;;
34200;SDS011;20469;55.638;37.670;2023-04-03T00:05:50;7.97;;;4.97;;
34200;SDS011;20469;55.638;37.670;2023-04-03T00:08:18;10.18;;;5.35;;
34200;SDS011;20469;55.638;37.670;2023-04-03T00:10:46;8.93;;;5.32;;
34200;SDS011;20469;55.638;37.670;2023-04-03T00:13:14;7.57;;;4.72;;
34200;SDS011;20469;55.638;37.670;2023-04-03T00:15:41;8.05;;;5.22;;
34200;SDS011;20469;55.638;37.670;2023-04-03T00:18:09;10.55;;;5.43;;
34200;SDS011;20469;55.638;37.670;2023-04-03T00:20:36;7.80;;;5.05;;
34200;SDS011;20469;55.638;37.670;2023-04-03T00:23:04;7.88;;;5.07;;
34200;SDS011;20469;55.638;37.670;2023-04-03T00:25:31;7.13;;;5.40;;
34200;SDS011;20469;55.638;37.670;2023-04-03T00:28:00;9.25;;;5.43;;
34200;SDS011;20469;55.638;37.670;2023-04-03T00:30:27;11.35;;;5.70;;
34200;SDS011;20469;55.638;37.670;2023-04-03T00:32:54;8.60;;;5.47;;
34200;SDS011;20469;55.638;37.670;2023-04-03T00:35:22;9.13;;;5.18;;
34200;SDS011;20469;55.638;37.670;2023-04-03T00:37:50;10.40;;;5.30;;
34200;SDS011;20469;55.638;37.670;2023-04-03T00:40:20;11.95;;;6.45;;
34200;SDS011;20469;55.638;37.670;2023-04-03T00:42:49;9.90;;;6.07;;
34200;SDS011;20469;55.638;37.670;2023-04-03T00:45:26;9.18;;;5.40;;
34200;SDS011;20469;55.638;37.670;2023-04-03T00:48:05;9.30;;;5.82;;
34200;SDS011;20469;55.638;37.670;2023-04-03T00:50:35;9.25;;;5.60;;
34200;SDS011;20469;55.638;37.670;2023-04-03T00:53:05;12.43;;;6.25;;
34200;SDS011;20469;55.638;37.670;2023-04-03T00:55:35;7.97;;;5.50;;
34200;SDS011;20469;55.638;37.670;2023-04-03T00:58:04;9.05;;;5.97;;
34200;SDS011;20469;55.638;37.670;2023-04-03T01:00:33;7.85;;;5.40;;
34200;SDS011;20469;55.638;37.670;2023-04-03T01:03:04;10.25;;;5.57;;
34200;SDS011;20469;55.638;37.670;2023-04-03T01:05:31;11.05;;;6.32;;
34200;SDS011;20469;55.638;37.670;2023-04-03T01:07:59;8.20;;;6.03;;
34200;SDS011;20469;55.638;37.670;2023-04-03T01:10:26;10.93;;;6.22;;
34200;SDS011;20469;55.638;37.670;2023-04-03T01:12:53;10.15;;;6.13;;
34200;SDS011;20469;55.638;37.670;2023-04-03T01:15:22;8.32;;;6.00;;
34200;SDS011;20469;55.638;37.670;2023-04-03T01:17:53;9.77;;;6.53;;
34200;SDS011;20469;55.638;37.670;2023-04-03T01:25:32;12.88;;;7.68;;
34200;SDS011;20469;55.638;37.670;2023-04-03T01:28:00;12.32;;;7.60;;
34200;SDS011;20469;55.638;37.670;2023-04-03T01:30:32;10.07;;;7.85;;
34200;SDS011;20469;55.638;37.670;2023-04-03T01:33:20;14.38;;;9.10;;
34200;SDS011;20469;55.638;37.670;2023-04-03T01:35:47;17.27;;;9.18;;
34200;SDS011;20469;55.638;37.670;2023-04-03T01:38:14;14.07;;;8.07;;
34200;SDS011;20469;55.638;37.670;2023-04-03T01:40:42;15.18;;;8.10;;
34200;SDS011;20469;55.638;37.670;2023-04-03T01:43:09;12.48;;;8.35;;
34200;SDS011;20469;55.638;37.670;2023-04-03T01:45:36;12.88;;;7.68;;
34200;SDS011;20469;55.638;37.670;2023-04-03T01:48:03;9.30;;;6.57;;
34200;SDS011;20469;55.638;37.670;2023-04-03T01:50:31;12.90;;;6.70;;
34200;SDS011;20469;55.638;37.670;2023-04-03T01:52:58;14.00;;;7.78;;
34200;SDS011;20469;55.638;37.670;2023-04-03T01:55:25;21.10;;;7.55;;
34200;SDS011;20469;55.638;37.670;2023-04-03T01:57:52;18.80;;;8.32;;
34200;SDS011;20469;55.638;37.670;2023-04-03T02:00:20;17.30;;;8.45;;
34200;SDS011;20469;55.638;37.670;2023-04-03T02:02:47;15.57;;;8.27;;
34200;SDS011;20469;55.638;37.670;2023-04-03T02:05:14;12.45;;;7.55;;
34200;SDS011;20469;55.638;37.670;2023-04-03T02:07:41;11.13;;;7.80;;
34200;SDS011;20469;55.638;37.670;2023-04-03T02:10:08;14.48;;;7.32;;
34200;SDS011;20469;55.638;37.670;2023-04-03T02:12:35;14.25;;;8.48;;
34200;SDS011;20469;55.638;37.670;2023-04-03T02:15:03;15.98;;;8.07;;
34200;SDS011;20469;55.638;37.670;2023-04-03T02:17:30;15.48;;;9.35;;
34200;SDS011;20469;55.638;37.670;2023-04-03T02:19:58;22.08;;;9.73;;
34200;SDS011;20469;55.638;37.670;2023-04-03T02:22:25;16.67;;;10.52;;
34200;SDS011;20469;55.638;37.670;2023-04-03T02:24:52;19.15;;;9.45;;
34200;SDS011;20469;55.638;37.670;2023-04-03T02:27:19;19.23;;;10.48;;
34200;SDS011;20469;55.638;37.670;2023-04-03T02:29:46;20.67;;;10.45;;
34200;SDS011;20469;55.638;37.670;2023-04-03T02:32:13;21.10;;;10.35;;
34200;SDS011;20469;55.638;37.670;2023-04-03T02:34:40;19.48;;;10.88;;
34200;SDS011;20469;55.638;37.670;2023-04-03T02:37:07;26.10;;;11.85;;
34200;SDS011;20469;55.638;37.670;2023-04-03T02:39:34;16.55;;;10.30;;
34200;SDS011;20469;55.638;37.670;2023-04-03T02:42:01;22.83;;;11.40;;
34200;SDS011;20469;55.638;37.670;2023-04-03T02:44:29;19.05;;;10.10;;
34200;SDS011;20469;55.638;37.670;2023-04-03T02:46:56;16.65;;;10.10;;
34200;SDS011;20469;55.638;37.670;2023-04-03T02:49:23;15.27;;;10.35;;
34200;SDS011;20469;55.638;37.670;2023-04-03T02:51:50;16.83;;;10.48;;
34200;SDS011;20469;55.638;37.670;2023-04-03T02:54:17;18.67;;;11.13;;
34200;SDS011;20469;55.638;37.670;2023-04-03T02:56:44;21.88;;;11.10;;
34200;SDS011;20469;55.638;37.670;2023-04-03T02:59:11;20.80;;;11.65;;
34200;SDS011;20469;55.638;37.670;2023-04-03T03:01:38;15.95;;;10.43;;
34200;SDS011;20469;55.638;37.670;2023-04-03T03:04:05;21.08;;;11.20;;
34200;SDS011;20469;55.638;37.670;2023-04-03T03:06:33;17.45;;;10.32;;
34200;SDS011;20469;55.638;37.670;2023-04-03T03:09:00;17.67;;;11.07;;
34200;SDS011;20469;55.638;37.670;2023-04-03T03:11:27;21.00;;;10.77;;
34200;SDS011;20469;55.638;37.670;2023-04-03T03:13:54;21.15;;;11.25;;
34200;SDS011;20469;55.638;37.670;2023-04-03T03:16:21;17.90;;;10.80;;
34200;SDS011;20469;55.638;37.670;2023-04-03T03:18:48;19.48;;;11.02;;
34200;SDS011;20469;55.638;37.670;2023-04-03T03:21:15;20.00;;;10.98;;
34200;SDS011;20469;55.638;37.670;2023-04-03T03:23:42;22.42;;;10.32;;
34200;SDS011;20469;55.638;37.670;2023-04-03T03:26:10;20.58;;;11.55;;
34200;SDS011;20469;55.638;37.670;2023-04-03T03:28:38;19.25;;;10.50;;
34200;SDS011;20469;55.638;37.670;2023-04-03T03:31:07;19.30;;;11.25;;
34200;SDS011;20469;55.638;37.670;2023-04-03T03:33:35;19.30;;;11.23;;
34200;SDS011;20469;55.638;37.670;2023-04-03T03:36:02;19.27;;;11.57;;
34200;SDS011;20469;55.638;37.670;2023-04-03T03:38:29;22.35;;;11.73;;
34200;SDS011;20469;55.638;37.670;2023-04-03T03:40:56;21.80;;;11.93;;
34200;SDS011;20469;55.638;37.670;2023-04-03T03:43:23;19.10;;;11.77;;
34200;SDS011;20469;55.638;37.670;2023-04-03T03:45:51;19.25;;;11.18;;
34200;SDS011;20469;55.638;37.670;2023-04-03T03:48:19;24.38;;;11.85;;
34200;SDS011;20469;55.638;37.670;2023-04-03T03:50:47;16.90;;;11.00;;
34200;SDS011;20469;55.638;37.670;2023-04-03T03:53:15;23.38;;;11.85;;
34200;SDS011;20469;55.638;37.670;2023-04-03T03:55:42;19.80;;;12.07;;
34200;SDS011;20469;55.638;37.670;2023-04-03T03:58:09;21.90;;;11.73;;
34200;SDS011;20469;55.638;37.670;2023-04-03T04:00:36;21.52;;;11.90;;
34200;SDS011;20469;55.638;37.670;2023-04-03T04:03:03;21.10;;;11.77;;
34200;SDS011;20469;55.638;37.670;2023-04-03T04:05:31;17.98;;;11.43;;
34200;SDS011;20469;55.638;37.670;2023-04-03T04:08:01;18.98;;;11.75;;
34200;SDS011;20469;55.638;37.670;2023-04-03T04:10:28;19.35;;;12.15;;
34200;SDS011;20469;55.638;37.670;2023-04-03T04:12:55;17.90;;;10.57;;
34200;SDS011;20469;55.638;37.670;2023-04-03T04:15:24;25.00;;;11.35;;
34200;SDS011;20469;55.638;37.670;2023-04-03T04:17:52;21.88;;;11.52;;
34200;SDS011;20469;55.638;37.670;2023-04-03T04:20:19;21.15;;;11.93;;
34200;SDS011;20469;55.638;37.670;2023-04-03T04:22:47;24.58;;;11.73;;
34200;SDS011;20469;55.638;37.670;2023-04-03T04:25:14;21.17;;;12.55;;
34200;SDS011;20469;55.638;37.670;2023-04-03T04:27:41;27.63;;;12.60;;
34200;SDS011;20469;55.638;37.670;2023-04-03T04:30:09;21.55;;;11.48;;
34200;SDS011;20469;55.638;37.670;2023-04-03T04:32:37;24.08;;;11.90;;
34200;SDS011;20469;55.638;37.670;2023-04-03T04:35:04;21.02;;;11.13;;
34200;SDS011;20469;55.638;37.670;2023-04-03T04:37:32;23.08;;;11.32;;
34200;SDS011;20469;55.638;37.670;2023-04-03T04:39:59;25.05;;;11.52;;
34200;SDS011;20469;55.638;37.670;2023-04-03T04:42:26;21.60;;;11.27;;
34200;SDS011;20469;55.638;37.670;2023-04-03T04:44:53;25.90;;;11.30;;
34200;SDS011;20469;55.638;37.670;2023-04-03T04:47:20;24.65;;;11.32;;
34200;SDS011;20469;55.638;37.670;2023-04-03T04:49:47;22.42;;;11.73;;
34200;SDS011;20469;55.638;37.670;2023-04-03T04:52:15;20.70;;;11.50;;
34200;SDS011;20469;55.638;37.670;2023-04-03T04:54:42;20.10;;;10.38;;
34200;SDS011;20469;55.638;37.670;2023-04-03T04:57:09;20.70;;;11.68;;
34200;SDS011;20469;55.638;37.670;2023-04-03T04:59:37;23.20;;;11.85;;
34200;SDS011;20469;55.638;37.670;2023-04-03T05:02:04;22.27;;;11.45;;
34200;SDS011;20469;55.638;37.670;2023-04-03T05:04:32;23.08;;;11.40;;
34200;SDS011;20469;55.638;37.670;2023-04-03T05:06:59;19.33;;;10.75;;
34200;SDS011;20469;55.638;37.670;2023-04-03T05:09:26;23.30;;;10.93;;
34200;SDS011;20469;55.638;37.670;2023-04-03T05:11:54;21.60;;;10.88;;
34200;SDS011;20469;55.638;37.670;2023-04-03T05:14:39;18.73;;;9.65;;
34200;SDS011;20469;55.638;37.670;2023-04-03T05:17:06;20.90;;;10.40;;
34200;SDS011;20469;55.638;37.670;2023-04-03T05:19:34;23.33;;;10.43;;
34200;SDS011;20469;55.638;37.670;2023-04-03T05:22:01;20.80;;;10.77;;
34200;SDS011;20469;55.638;37.670;2023-04-03T05:24:28;21.10;;;11.00;;
34200;SDS011;20469;55.638;37.670;2023-04-03T05:26:56;19.30;;;11.00;;
34200;SDS011;20469;55.638;37.670;2023-04-03T05:29:23;18.70;;;10.32;;
34200;SDS011;20469;55.638;37.670;2023-04-03T05:31:50;21.45;;;10.75;;
34200;SDS011;20469;55.638;37.670;2023-04-03T05:34:17;20.35;;;10.25;;
34200;SDS011;20469;55.638;37.670;2023-04-03T05:36:45;17.27;;;10.25;;
34200;SDS011;20469;55.638;37.670;2023-04-03T05:39:12;20.70;;;9.25;;
34200;SDS011;20469;55.638;37.670;2023-04-03T05:41:58;24.58;;;9.50;;
34200;SDS011;20469;55.638;37.670;2023-04-03T05:44:25;21.52;;;10.95;;
34200;SDS011;20469;55.638;37.670;2023-04-03T05:46:52;23.20;;;10.90;;
34200;SDS011;20469;55.638;37.670;2023-04-03T05:49:20;22.63;;;10.75;;
34200;SDS011;20469;55.638;37.670;2023-04-03T05:51:47;26.05;;;10.70;;
34200;SDS011;20469;55.638;37.670;2023-04-03T05:54:18;20.15;;;10.13;;
34200;SDS011;20469;55.638;37.670;2023-04-03T05:56:53;29.23;;;10.63;;
34200;SDS011;20469;55.638;37.670;2023-04-03T05:59:21;23.27;;;10.07;;
34200;SDS011;20469;55.638;37.670;2023-04-03T06:01:48;21.25;;;10.38;;
34200;SDS011;20469;55.638;37.670;2023-04-03T06:04:15;29.35;;;9.90;;
34200;SDS011;20469;55.638;37.670;2023-04-03T06:07:01;21.55;;;9.75;;
34200;SDS011;20469;55.638;37.670;2023-04-03T06:09:28;22.25;;;10.30;;
34200;SDS011;20469;55.638;37.670;2023-04-03T06:11:57;30.60;;;10.48;;
34200;SDS011;20469;55.638;37.670;2023-04-03T06:14:25;29.92;;;10.43;;
34200;SDS011;20469;55.638;37.670;2023-04-03T06:16:52;21.10;;;9.90;;
34200;SDS011;20469;55.638;37.670;2023-04-03T06:19:20;25.13;;;10.43;;
34200;SDS011;20469;55.638;37.670;2023-04-03T06:21:47;23.85;;;10.60;;
34200;SDS011;20469;55.638;37.670;2023-04-03T06:24:33;24.88;;;10.90;;
34200;SDS011;20469;55.638;37.670;2023-04-03T06:27:00;22.67;;;9.30;;
34200;SDS011;20469;55.638;37.670;2023-04-03T06:29:27;23.83;;;9.85;;
34200;SDS011;20469;55.638;37.670;2023-04-03T06:31:54;25.38;;;10.65;;
34200;SDS011;20469;55.638;37.670;2023-04-03T06:34:21;25.73;;;10.18;;
34200;SDS011;20469;55.638;37.670;2023-04-03T06:36:49;21.65;;;9.63;;
34200;SDS011;20469;55.638;37.670;2023-04-03T06:42:03;24.25;;;9.88;;
34200;SDS011;20469;55.638;37.670;2023-04-03T06:44:30;27.92;;;10.13;;
34200;SDS011;20469;55.638;37.670;2023-04-03T06:47:00;24.08;;;10.18;;
34200;SDS011;20469;55.638;37.670;2023-04-03T06:49:27;22.95;;;10.25;;
34200;SDS011;20469;55.638;37.670;2023-04-03T06:51:55;23.45;;;10.25;;
34200;SDS011;20469;55.638;37.670;2023-04-03T06:54:22;21.88;;;10.10;;
34200;SDS011;20469;55.638;37.670;2023-04-03T06:56:49;25.48;;;10.35;;
34200;SDS011;20469;55.638;37.670;2023-04-03T06:59:17;20.13;;;10.38;;
34200;SDS011;20469;55.638;37.670;2023-04-03T07:01:44;24.10;;;9.90;;
34200;SDS011;20469;55.638;37.670;2023-04-03T07:04:12;24.83;;;9.90;;
34200;SDS011;20469;55.638;37.670;2023-04-03T07:06:39;21.58;;;9.40;;
34200;SDS011;20469;55.638;37.670;2023-04-03T07:09:06;26.85;;;10.05;;
34200;SDS011;20469;55.638;37.670;2023-04-03T07:11:34;23.73;;;9.85;;
34200;SDS011;20469;55.638;37.670;2023-04-03T07:14:02;25.95;;;10.00;;
34200;SDS011;20469;55.638;37.670;2023-04-03T07:16:29;25.77;;;10.38;;
34200;SDS011;20469;55.638;37.670;2023-04-03T07:18:57;24.25;;;10.13;;
34200;SDS011;20469;55.638;37.670;2023-04-03T07:21:25;26.00;;;11.15;;
34200;SDS011;20469;55.638;37.670;2023-04-03T07:23:52;33.97;;;10.95;;
34200;SDS011;20469;55.638;37.670;2023-04-03T07:26:19;26.90;;;11.30;;
34200;SDS011;20469;55.638;37.670;2023-04-03T07:28:49;29.42;;;10.88;;
34200;SDS011;20469;55.638;37.670;2023-04-03T07:31:16;29.80;;;11.70;;
34200;SDS011;20469;55.638;37.670;2023-04-03T07:33:44;26.83;;;11.32;;
34200;SDS011;20469;55.638;37.670;2023-04-03T07:36:14;24.30;;;11.05;;
34200;SDS011;20469;55.638;37.670;2023-04-03T07:38:43;26.63;;;12.00;;
34200;SDS011;20469;55.638;37.670;2023-04-03T07:41:15;25.50;;;11.95;;
34200;SDS011;20469;55.638;37.670;2023-04-03T07:43:44;20.77;;;11.80;;
34200;SDS011;20469;55.638;37.670;2023-04-03T07:46:13;22.30;;;11.68;;
34200;SDS011;20469;55.638;37.670;2023-04-03T07:48:40;29.17;;;12.82;;
34200;SDS011;20469;55.638;37.670;2023-04-03T07:51:07;24.83;;;11.95;;
34200;SDS011;20469;55.638;37.670;2023-04-03T07:53:37;23.88;;;11.43;;
34200;SDS011;20469;55.638;37.670;2023-04-03T07:56:04;27.00;;;12.60;;
34200;SDS011;20469;55.638;37.670;2023-04-03T07:58:31;31.63;;;13.13;;
34200;SDS011;20469;55.638;37.670;2023-04-03T08:00:59;27.38;;;12.57;;
34200;SDS011;20469;55.638;37.670;2023-04-03T08:03:26;28.27;;;13.45;;
34200;SDS011;20469;55.638;37.670;2023-04-03T08:05:53;23.98;;;13.27;;
34200;SDS011;20469;55.638;37.670;2023-04-03T08:08:21;28.45;;;13.73;;
34200;SDS011;20469;55.638;37.670;2023-04-03T08:10:53;26.15;;;13.70;;
34200;SDS011;20469;55.638;37.670;2023-04-03T08:13:21;22.33;;;13.20;;
34200;SDS011;20469;55.638;37.670;2023-04-03T08:15:48;25.38;;;12.93;;
34200;SDS011;20469;55.638;37.670;2023-04-03T08:18:16;23.75;;;13.23;;
34200;SDS011;20469;55.638;37.670;2023-04-03T08:20:44;24.85;;;13.18;;
34200;SDS011;20469;55.638;37.670;2023-04-03T08:23:11;27.35;;;13.45;;
34200;SDS011;20469;55.638;37.670;2023-04-03T08:25:39;31.40;;;13.90;;
34200;SDS011;20469;55.638;37.670;2023-04-03T08:28:08;30.77;;;13.40;;
34200;SDS011;20469;55.638;37.670;2023-04-03T08:30:40;25.17;;;13.60;;
34200;SDS011;20469;55.638;37.670;2023-04-03T08:33:09;31.42;;;14.48;;
34200;SDS011;20469;55.638;37.670;2023-04-03T08:35:40;23.75;;;13.20;;
34200;SDS011;20469;55.638;37.670;2023-04-03T08:38:09;24.73;;;13.80;;
34200;SDS011;20469;55.638;37.670;2023-04-03T08:40:36;29.00;;;14.48;;
34200;SDS011;20469;55.638;37.670;2023-04-03T08:45:48;24.17;;;13.38;;
34200;SDS011;20469;55.638;37.670;2023-04-03T08:51:03;23.63;;;13.27;;
34200;SDS011;20469;55.638;37.670;2023-04-03T08:53:39;19.40;;;12.75;;
34200;SDS011;20469;55.638;37.670;2023-04-03T08:56:11;21.90;;;13.63;;
34200;SDS011;20469;55.638;37.670;2023-04-03T08:59:00;21.52;;;13.20;;
34200;SDS011;20469;55.638;37.670;2023-04-03T09:01:34;19.75;;;13.60;;
34200;SDS011;20469;55.638;37.670;2023-04-03T09:04:10;22.17;;;13.52;;
34200;SDS011;20469;55.638;37.670;2023-04-03T09:06:45;27.08;;;13.60;;
34200;SDS011;20469;55.638;37.670;2023-04-03T09:09:33;21.50;;;13.13;;
34200;SDS011;20469;55.638;37.670;2023-04-03T09:12:07;22.85;;;13.27;;
34200;SDS011;20469;55.638;37.670;2023-04-03T09:22:59;23.15;;;12.77;;
34200;SDS011;20469;55.638;37.670;2023-04-03T09:25:31;27.48;;;13.25;;
34200;SDS011;20469;55.638;37.670;2023-04-03T09:28:03;21.05;;;12.82;;
34200;SDS011;20469;55.638;37.670;2023-04-03T09:30:36;20.85;;;13.18;;
34200;SDS011;20469;55.638;37.670;2023-04-03T09:33:04;20.05;;;12.13;;
34200;SDS011;20469;55.638;37.670;2023-04-03T09:35:35;19.77;;;12.77;;
34200;SDS011;20469;55.638;37.670;2023-04-03T09:40:41;23.15;;;12.32;;
34200;SDS011;20469;55.638;37.670;2023-04-03T09:45:47;23.02;;;12.70;;
34200;SDS011;20469;55.638;37.670;2023-04-03T09:48:20;18.10;;;12.65;;
34200;SDS011;20469;55.638;37.670;2023-04-03T09:58:47;20.23;;;12.48;;
34200;SDS011;20469;55.638;37.670;2023-04-03T10:04:11;17.15;;;11.35;;
34200;SDS011;20469;55.638;37.670;2023-04-03T10:09:31;22.35;;;12.80;;
34200;SDS011;20469;55.638;37.670;2023-04-03T10:14:36;18.25;;;10.98;;
34200;SDS011;20469;55.638;37.670;2023-04-03T10:25:28;20.15;;;10.38;;
34200;SDS011;20469;55.638;37.670;2023-04-03T10:31:05;23.80;;;11.20;;
34200;SDS011;20469;55.638;37.670;2023-04-03T10:33:47;21.77;;;10.90;;
34200;SDS011;20469;55.638;37.670;2023-04-03T10:36:35;20.20;;;11.17;;
34200;SDS011;20469;55.638;37.670;2023-04-03T10:39:25;21.85;;;11.07;;
34200;SDS011;20469;55.638;37.670;2023-04-03T10:42:18;16.00;;;11.18;;
34200;SDS011;20469;55.638;37.670;2023-04-03T10:45:08;17.75;;;10.85;;
34200;SDS011;20469;55.638;37.670;2023-04-03T10:50:49;18.08;;;10.77;;
34200;SDS011;20469;55.638;37.670;2023-04-03T10:53:21;15.57;;;10.43;;
34200;SDS011;20469;55.638;37.670;2023-04-03T11:01:38;17.38;;;10.10;;
34200;SDS011;20469;55.638;37.670;2023-04-03T11:04:08;16.52;;;10.10;;
34200;SDS011;20469;55.638;37.670;2023-04-03T11:06:40;17.75;;;10.80;;
34200;SDS011;20469;55.638;37.670;2023-04-03T11:09:24;21.48;;;10.95;;
34200;SDS011;20469;55.638;37.670;2023-04-03T11:12:02;17.55;;;10.38;;
34200;SDS011;20469;55.638;37.670;2023-04-03T11:14:37;21.00;;;10.95;;
34200;SDS011;20469;55.638;37.670;2023-04-03T11:22:42;16.92;;;9.82;;
34200;SDS011;20469;55.638;37.670;2023-04-03T11:25:30;18.50;;;10.18;;
34200;SDS011;20469;55.638;37.670;2023-04-03T11:28:04;17.92;;;9.27;;
34200;SDS011;20469;55.638;37.670;2023-04-03T11:36:22;22.60;;;10.07;;
34200;SDS011;20469;55.638;37.670;2023-04-03T11:39:01;19.92;;;10.27;;
34200;SDS011;20469;55.638;37.670;2023-04-03T11:41:46;16.50;;;9.82;;
34200;SDS011;20469;55.638;37.670;2023-04-03T11:44:32;16.85;;;10.02;;
34200;SDS011;20469;55.638;37.670;2023-04-03T11:47:10;20.27;;;9.18;;
34200;SDS011;20469;55.638;37.670;2023-04-03T12:13:40;13.02;;;6.57;;
34200;SDS011;20469;55.638;37.670;2023-04-03T12:24:01;11.73;;;5.55;;
34200;SDS011;20469;55.638;37.670;2023-04-03T12:26:38;14.68;;;5.50;;
34200;SDS011;20469;55.638;37.670;2023-04-03T12:37:21;13.32;;;5.82;;
34200;SDS011;20469;55.638;37.670;2023-04-03T12:40:02;16.30;;;6.28;;
34200;SDS011;20469;55.638;37.670;2023-04-03T12:45:16;13.10;;;5.60;;
34200;SDS011;20469;55.638;37.670;2023-04-03T12:47:52;12.82;;;5.35;;
34200;SDS011;20469;55.638;37.670;2023-04-03T12:53:00;12.13;;;5.40;;
34200;SDS011;20469;55.638;37.670;2023-04-03T12:55:33;11.02;;;5.18;;
34200;SDS011;20469;55.638;37.670;2023-04-03T12:58:14;11.52;;;5.43;;
34200;SDS011;20469;55.638;37.670;2023-04-03T13:00:43;9.45;;;4.95;;
34200;SDS011;20469;55.638;37.670;2023-04-03T13:03:21;11.38;;;5.30;;
34200;SDS011;20469;55.638;37.670;2023-04-03T13:05:57;12.50;;;4.85;;
34200;SDS011;20469;55.638;37.670;2023-04-03T13:08:28;13.00;;;5.32;;
34200;SDS011;20469;55.638;37.670;2023-04-03T13:13:25;7.85;;;4.32;;
34200;SDS011;20469;55.638;37.670;2023-04-03T13:15:53;8.85;;;4.53;;
34200;SDS011;20469;55.638;37.670;2023-04-03T13:20:59;10.43;;;5.40;;
34200;SDS011;20469;55.638;37.670;2023-04-03T13:23:50;9.13;;;4.97;;
34200;SDS011;20469;55.638;37.670;2023-04-03T13:26:32;10.30;;;5.25;;
34200;SDS011;20469;55.638;37.670;2023-04-03T13:29:02;12.82;;;5.13;;
34200;SDS011;20469;55.638;37.670;2023-04-03T13:31:33;14.43;;;5.57;;
34200;SDS011;20469;55.638;37.670;2023-04-03T13:34:06;7.78;;;4.93;;
34200;SDS011;20469;55.638;37.670;2023-04-03T13:36:41;10.63;;;5.60;;
34200;SDS011;20469;55.638;37.670;2023-04-03T13:41:49;9.10;;;5.50;;
34200;SDS011;20469;55.638;37.670;2023-04-03T13:46:52;14.40;;;6.38;;
34200;SDS011;20469;55.638;37.670;2023-04-03T13:49:39;11.00;;;5.70;;
34200;SDS011;20469;55.638;37.670;2023-04-03T13:54:58;16.08;;;6.15;;
34200;SDS011;20469;55.638;37.670;2023-04-03T13:57:29;12.60;;;5.85;;
34200;SDS011;20469;55.638;37.670;2023-04-03T13:59:57;15.70;;;6.35;;
34200;SDS011;20469;55.638;37.670;2023-04-03T14:02:31;15.05;;;6.25;;
34200;SDS011;20469;55.638;37.670;2023-04-03T14:05:00;12.20;;;6.25;;
34200;SDS011;20469;55.638;37.670;2023-04-03T14:07:30;12.68;;;6.28;;
34200;SDS011;20469;55.638;37.670;2023-04-03T14:09:57;15.13;;;6.43;;
34200;SDS011;20469;55.638;37.670;2023-04-03T14:15:05;12.70;;;6.32;;
34200;SDS011;20469;55.638;37.670;2023-04-03T14:17:43;15.93;;;6.03;;
34200;SDS011;20469;55.638;37.670;2023-04-03T14:20:14;14.68;;;6.70;;
34200;SDS011;20469;55.638;37.670;2023-04-03T14:22:43;16.55;;;6.82;;
34200;SDS011;20469;55.638;37.670;2023-04-03T14:25:10;15.10;;;6.80;;
34200;SDS011;20469;55.638;37.670;2023-04-03T14:27:39;17.08;;;6.32;;
34200;SDS011;20469;55.638;37.670;2023-04-03T14:30:16;9.68;;;5.35;;
34200;SDS011;20469;55.638;37.670;2023-04-03T14:32:46;12.23;;;5.63;;
34200;SDS011;20469;55.638;37.670;2023-04-03T14:35:15;10.77;;;5.78;;
34200;SDS011;20469;55.638;37.670;2023-04-03T14:37:44;18.30;;;6.38;;
34200;SDS011;20469;55.638;37.670;2023-04-03T14:40:14;13.65;;;5.80;;
34200;SDS011;20469;55.638;37.670;2023-04-03T14:42:44;13.30;;;5.88;;
34200;SDS011;20469;55.638;37.670;2023-04-03T14:45:14;15.07;;;6.13;;
34200;SDS011;20469;55.638;37.670;2023-04-03T14:47:46;16.35;;;6.57;;
34200;SDS011;20469;55.638;37.670;2023-04-03T14:50:18;14.57;;;5.60;;
34200;SDS011;20469;55.638;37.670;2023-04-03T14:52:48;12.73;;;5.55;;
34200;SDS011;20469;55.638;37.670;2023-04-03T14:55:18;15.10;;;6.13;;
34200;SDS011;20469;55.638;37.670;2023-04-03T14:57:47;9.43;;;5.70;;
34200;SDS011;20469;55.638;37.670;2023-04-03T15:00:16;12.68;;;5.85;;
34200;SDS011;20469;55.638;37.670;2023-04-03T15:02:45;12.27;;;6.07;;
34200;SDS011;20469;55.638;37.670;2023-04-03T15:05:14;12.02;;;5.72;;
34200;SDS011;20469;55.638;37.670;2023-04-03T15:07:43;15.93;;;6.32;;
34200;SDS011;20469;55.638;37.670;2023-04-03T15:12:46;13.93;;;6.63;;
34200;SDS011;20469;55.638;37.670;2023-04-03T15:15:14;12.95;;;6.38;;
34200;SDS011;20469;55.638;37.670;2023-04-03T15:17:43;17.45;;;7.15;;
34200;SDS011;20469;55.638;37.670;2023-04-03T15:20:15;15.80;;;7.00;;
34200;SDS011;20469;55.638;37.670;2023-04-03T15:22:47;16.80;;;7.28;;
34200;SDS011;20469;55.638;37.670;2023-04-03T15:25:15;18.75;;;7.13;;
34200;SDS011;20469;55.638;37.670;2023-04-03T15:27:42;18.70;;;7.93;;
34200;SDS011;20469;55.638;37.670;2023-04-03T15:30:16;17.10;;;7.88;;
34200;SDS011;20469;55.638;37.670;2023-04-03T15:32:44;18.58;;;7.72;;
34200;SDS011;20469;55.638;37.670;2023-04-03T15:35:12;17.77;;;8.32;;
34200;SDS011;20469;55.638;37.670;2023-04-03T15:37:39;20.40;;;8.18;;
34200;SDS011;20469;55.638;37.670;2023-04-03T15:40:06;16.05;;;7.30;;
34200;SDS011;20469;55.638;37.670;2023-04-03T15:42:34;18.95;;;7.82;;
34200;SDS011;20469;55.638;37.670;2023-04-03T15:45:02;17.23;;;7.60;;
34200;SDS011;20469;55.638;37.670;2023-04-03T15:47:29;17.02;;;8.02;;
34200;SDS011;20469;55.638;37.670;2023-04-03T15:49:56;21.73;;;8.13;;
34200;SDS011;20469;55.638;37.670;2023-04-03T15:52:24;17.90;;;8.00;;
34200;SDS011;20469;55.638;37.670;2023-04-03T15:54:51;17.58;;;8.05;;
34200;SDS011;20469;55.638;37.670;2023-04-03T15:57:18;18.95;;;7.75;;
34200;SDS011;20469;55.638;37.670;2023-04-03T15:59:45;18.40;;;7.10;;
34200;SDS011;20469;55.638;37.670;2023-04-03T16:02:12;15.43;;;7.18;;
34200;SDS011;20469;55.638;37.670;2023-04-03T16:04:40;19.42;;;7.32;;
34200;SDS011;20469;55.638;37.670;2023-04-03T16:07:07;17.02;;;6.97;;
34200;SDS011;20469;55.638;37.670;2023-04-03T16:09:34;23.02;;;7.35;;
34200;SDS011;20469;55.638;37.670;2023-04-03T16:12:02;20.08;;;7.35;;
34200;SDS011;20469;55.638;37.670;2023-04-03T16:14:29;15.57;;;6.63;;
34200;SDS011;20469;55.638;37.670;2023-04-03T16:16:57;17.30;;;6.88;;
34200;SDS011;20469;55.638;37.670;2023-04-03T16:19:28;15.00;;;6.88;;
34200;SDS011;20469;55.638;37.670;2023-04-03T16:21:57;14.65;;;7.50;;
34200;SDS011;20469;55.638;37.670;2023-04-03T16:24:24;16.90;;;7.07;;
34200;SDS011;20469;55.638;37.670;2023-04-03T16:26:51;15.13;;;6.63;;
34200;SDS011;20469;55.638;37.670;2023-04-03T16:29:19;15.88;;;6.88;;
34200;SDS011;20469;55.638;37.670;2023-04-03T16:31:46;13.52;;;6.72;;
34200;SDS011;20469;55.638;37.670;2023-04-03T16:34:14;16.80;;;6.57;;
34200;SDS011;20469;55.638;37.670;2023-04-03T16:36:42;13.95;;;6.35;;
34200;SDS011;20469;55.638;37.670;2023-04-03T16:39:09;13.98;;;6.40;;
34200;SDS011;20469;55.638;37.670;2023-04-03T16:41:36;14.27;;;6.00;;
34200;SDS011;20469;55.638;37.670;2023-04-03T16:44:04;16.42;;;5.82;;
34200;SDS011;20469;55.638;37.670;2023-04-03T16:46:33;17.35;;;6.35;;
34200;SDS011;20469;55.638;37.670;2023-04-03T16:49:00;16.67;;;6.95;;